Rejestracja

Wszystkie dane podawane są w czasie UTC za wyjątkiem miejsc gdzie jest jednoznacznie podane, że jest inaczej. Dane podawane w serwisie mają charakter informacyjny!!!
Informacje w sprawie dostępu do serwisu pod numerem tel. +48 261-828-138

Aktualna Pogoda
 
Pogoda w Polsce
10°C Szczecin 4°C Suwałki 8°C Warszawa 11°C Poznan
11°C Opole 11°C Kraków 10°C Rzeszów
Więcej miast w Polsce

Pogoda w Europie
12°C Berlin 18°C Paryz 14°C Bruksela 13°C Oslo
12°C Praga 16°C Zagrzeb
Więcej miast w Europie

Metary wojskowe test
METAR EPBC 251500Z 30017KT 9999 BKN039 08/M02 Q1019=
METAR EPCE 251500Z 31012KT 9999 BKN019 05/02 Q1022 RMK 053 078 6/6=
METAR EPDA 251500Z 29008KT CAVOK 05/04 Q1024 RMK 054 089 2/2=
METAR EPDE 251500Z 26010KT 9999 SCT050 OVC080 08/M07 Q1018 RMK 079 035 8/4=
METAR EPIR 251500Z 31022KT 9999 SCT025 BKN033 06/02 Q1022 RMK 062 073 7/4=
METAR EPKS 251500Z 30018G28KT 9999 SCT046 BKN200 11/01 Q1022 RMK 112 048 7/3=
METAR EPLK 251500Z 27016KT 9999 FEW034 BKN050 BKN200 09/M01 Q1020 RMK 093 048 7/1=
METAR EPLY 251500Z 32012KT 9999 BKN050 09/00 Q1021 RMK 088 054 7/5=
METAR EPMB 251500Z 32012KT 9999 BKN025 07/02 Q1021 RMK 069 069 7/7=
METAR EPMI 251500Z 29012KT 9999 BKN020 06/01 Q1024 RMK 064 068 6/6=
METAR EPMM 251500Z 30012KT 9999 BKN040 BKN070 07/M02 Q1018 RMK 071 053 7/5=
METAR EPOK 251500Z 33009KT 290V350 9999 SCT023 07/02 Q1021 RMK 066 072 4/4=
METAR EPPR 251500Z 31018KT 9999 BKN032 08/01 Q1021 RMK 082 061 5/5=
METAR EPPW 251500Z 29016KT 9999 BKN040 10/00 Q1021 RMK 098 052 7/7=
METAR EPSN 251500Z 29012KT 9999 BKN018 06/02 Q1024 RMK 062 074 7/7=
METAR EPTM 251500Z 29014KT CAVOK 09/M02 Q1019 RMK 087 046 7/2=


 
Informacje ogólne
Pogoda
Warszawa
Temperatura: 7.7°C
Wiatr: 9.0 m/s
Ciśnienie: 1019.7 hPa
Zjawiska: Brak
Temp. max: 9.0 °C
Temp. min: 0.0 °C


Dane astronomiczne
Warszawa:
Dzien: 12:29 h
Noc: 11:31 h


Using HW VSP powered by HW group.

Prawa autorskie©2007 SSH SZ RP. Wszelkie prawa zastrzeżone.